Airfield :
LOGIN :

Register | Disclaimer

   EN    FR    IT 

 










Legend :    VFR   Marginal VFR   IFR   Intensive IFR   Very Intensive IFR
Visi :
Ceiling :
>= 8 km
>= 3000ft
5 to 8 km
1000 to 3000 ft
1500m to 5 km
500 to 1000 ft
800 to 1500m
200 to 500 ft
< 800m
< 200 ft
Symbols :   Thunderstorms  Fog  Heavy snow  Heavy precipitations  Wind > 20 kt
SIGMETs :     Misc.  Thunderstorms  Icing  Turbulence  Mountain Waves  Volcanic Ashes







- Airport Elevation : 230 ft


ETHB - Buckeburg Army

CURRENT METAR :
  • 201820Z 27007KT 9999 FEW040 SCT060 BKN100 21/14 Q1012 BLU BLU+ TEMPO WHT

EXPIRED METARs :
  • 201720Z 29009KT 9999 FEW040TCU SCT065 BKN170 22/13 Q1011 BLU BLU+ TEMPO WHT
  • 201620Z 31008KT 9999 SCT035TCU SCT250 23/14 Q1011 BLU+BLU+ TEMPO WHT

TAF TAF ETHB
Valid from the 20 at 14:00 until the 20 at 23:00 UTC


201309Z 2014/2023 26008KT 9999 NSW SCT030 SCT120
TEMPO 2014/2022 27012G22KT 5000 SHRA SCT020 BKN030CB
PROB30 2014/2019 28018G30KT 3000 TSRA BKN015 BKN025CB
BECMG 2022/2023 25005KT 7000 NSW SCT120
No reported NOTAMs for that airfield.



MET'MAP, your aeronautical weather chart ! - Copyright ORBIFLY December 2007 - Disclaimer

ORBIFLY MET'MAP TEAM :

Programming & Development : Alexandra Zaïnal
Concept & Development : Baudouin d'Aumeries
Co-Development & Prog : Marc-Olivier Méhu
Technical & hardware support : Manuel Goepfert

Contact : metmap@orbifly.com




SOURCES & CREDITS :

   NOAA